Airfield :
LOGIN :

Register | Disclaimer

   EN    FR    IT 

 










Legend :    VFR   Marginal VFR   IFR   Intensive IFR   Very Intensive IFR
Visi :
Ceiling :
>= 8 km
>= 3000ft
5 to 8 km
1000 to 3000 ft
1500m to 5 km
500 to 1000 ft
800 to 1500m
200 to 500 ft
< 800m
< 200 ft
Symbols :   Thunderstorms  Fog  Heavy snow  Heavy precipitations  Wind > 20 kt
SIGMETs :     Misc.  Thunderstorms  Icing  Turbulence  Mountain Waves  Volcanic Ashes






- Airport Elevation : 909 ft
- IATA code : KSF


EDVK - Kassel Calden

CURRENT METAR :
  • 040920Z VRB02KT 6000 -RA SCT007 BKN012 BKN045 14/12 Q0996

EXPIRED METARs :
  • 040850Z VRB01KT 6000 SCT007 BKN025 14/12 Q0996
  • 040820Z 35005KT 320V020 7000 -RA SCT006 BKN012 BKN045 13/13 Q0996
  • 040750Z 30005KT 6000 -RA FEW007 BKN048 13/13 Q0996 RERA
  • 040720Z 29007KT 6000 RA FEW014 BKN046 14/13 Q0996
  • 040650Z 29006KT 9000 -RA FEW014 BKN022 14/12 Q0996

TAF TAF EDVK
Valid from the 04 at 09:00 until the 04 at 18:00 UTC


040800Z 0409/0418 29006KT 9999 FEW014
TEMPO 0409/0410 4500 RA BKN008
PROB30
TEMPO 0410/0418 4000 SHRA BKN015CB
BECMG 0416/0418 29011KT



MET'MAP, your aeronautical weather chart ! - Copyright ORBIFLY December 2007 - Disclaimer

ORBIFLY MET'MAP TEAM :

Programming & Development : Alexandra Zaïnal
Concept & original design : Baudouin d'Aumeries
Assistance for programming : Marc-Olivier Méhu
Technical & hardware support : Manuel Goepfert

Contact : metmap@orbifly.com




SOURCES & CREDITS :

   NOAA